Time;durP1;ratioP1;P1;durP2;ratioP2;P2;SDS_P1;SDS_P2;PMS_P1;PMS_P2;Temp;Humidity;BMP_temperature;BMP_pressure;BME280_temperature;BME280_humidity;BME280_pressure;Samples;Min_cycle;Max_cycle;Signal;HPM_P1;HPM_P2
2022/09/12 00:00:21;;;;;;;;;14.67;14.67;;;;;17.63;81.25;101107.25;5014233;28;45374;-75
2022/09/12 00:02:50;;;;;;;;;17.00;14.67;;;;;17.59;81.12;101094.47;5024038;28;45321;-76
2022/09/12 00:05:15;;;;;;;;;14.33;14.00;;;;;17.59;81.43;101099.84;5018364;28;46253;-76
2022/09/12 00:07:41;;;;;;;;;15.33;15.00;;;;;17.56;81.33;101097.56;5015257;28;47310;-76
2022/09/12 00:10:06;;;;;;;;;14.67;14.67;;;;;17.57;81.75;101104.63;5015732;28;45267;-76
2022/09/12 00:12:32;;;;;;;;;15.00;15.00;;;;;17.49;81.56;101089.53;5015428;28;45448;-76
2022/09/12 00:14:57;;;;;;;;;16.00;15.33;;;;;17.55;81.41;101099.44;5015431;28;45312;-76
2022/09/12 00:17:23;;;;;;;;;15.00;14.00;;;;;17.53;81.53;101105.03;5026362;28;46187;-76
2022/09/12 00:19:48;;;;;;;;;15.00;15.00;;;;;17.48;81.96;101104.81;5015458;28;45237;-76
2022/09/12 00:22:15;;;;;;;;;11.33;10.67;;;;;17.44;81.74;101086.66;5015699;28;46779;-76
2022/09/12 00:24:40;;;;;;;;;17.00;15.33;;;;;17.46;81.83;101093.47;5015160;28;45490;-76
2022/09/12 00:27:05;;;;;;;;;13.00;13.00;;;;;17.44;81.77;101092.03;5015569;28;46165;-76
2022/09/12 00:29:31;;;;;;;;;15.00;15.00;;;;;17.40;82.51;101094.31;5013902;28;45323;-77
2022/09/12 00:31:56;;;;;;;;;11.00;11.00;;;;;17.47;81.92;101096.97;5015521;28;45501;-76
2022/09/12 00:34:21;;;;;;;;;14.33;13.00;;;;;17.36;82.49;101082.38;5015082;28;45432;-76
2022/09/12 00:36:47;;;;;;;;;13.00;11.33;;;;;17.32;82.08;101095.38;5020002;28;47529;-76
2022/09/12 00:39:15;;;;;;;;;15.00;15.00;;;;;17.38;82.84;101091.00;5017726;28;45353;-76
2022/09/12 00:41:41;;;;;;;;;13.67;12.00;;;;;17.35;82.76;101091.44;5018660;28;45350;-76
2022/09/12 00:44:09;;;;;;;;;11.00;11.00;;;;;17.32;82.93;101094.53;5018137;28;45419;-76
2022/09/12 00:46:56;;;;;;;;;13.00;13.00;;;;;17.27;83.17;101089.81;5023186;28;47291;-76
2022/09/12 00:49:27;;;;;;;;;11.67;11.00;;;;;17.26;83.19;101080.94;5023145;28;45367;-76
2022/09/12 00:52:02;;;;;;;;;15.33;14.00;;;;;17.32;83.21;101086.47;5032270;28;45290;-76
2022/09/12 00:54:33;;;;;;;;;12.33;12.33;;;;;17.33;82.76;101083.59;5027646;28;46249;-76
2022/09/12 00:57:03;;;;;;;;;11.67;10.33;;;;;17.27;83.11;101069.16;5020107;28;45356;-76
2022/09/12 00:59:34;;;;;;;;;10.00;10.00;;;;;17.32;82.92;101078.41;5017852;28;45452;-76
2022/09/12 01:01:59;;;;;;;;;10.00;10.00;;;;;17.31;82.88;101080.31;5017880;28;45527;-76
2022/09/12 01:04:26;;;;;;;;;12.33;12.00;;;;;17.25;83.04;101070.41;5016830;28;45406;-77
2022/09/12 01:06:54;;;;;;;;;9.67;9.67;;;;;17.25;82.83;101060.50;5017854;28;45876;-76
2022/09/12 01:09:22;;;;;;;;;12.00;12.00;;;;;17.24;83.13;101060.69;5040620;28;45364;-76
2022/09/12 01:11:49;;;;;;;;;12.00;12.00;;;;;17.21;83.10;101053.88;5024398;28;45469;-75
2022/09/12 01:14:16;;;;;;;;;12.00;11.00;;;;;17.18;83.31;101046.22;5017415;28;45513;-76
2022/09/12 01:16:43;;;;;;;;;11.00;10.67;;;;;17.21;83.05;101048.50;5026775;28;45823;-76
2022/09/12 01:19:21;;;;;;;;;13.00;12.00;;;;;17.21;83.42;101053.88;5019683;28;45611;-76
2022/09/12 01:22:12;;;;;;;;;13.33;13.33;;;;;17.23;83.64;101041.06;5028585;28;45428;-76
2022/09/12 01:24:37;;;;;;;;;13.00;12.00;;;;;17.25;83.96;101038.16;5032944;28;47176;-76
2022/09/12 01:27:25;;;;;;;;;13.67;13.67;;;;;17.27;83.84;101044.16;5017544;28;46294;-76
2022/09/12 01:30:21;;;;;;;;;13.00;13.00;;;;;17.28;83.77;101041.28;5017852;28;45356;-76
2022/09/12 01:33:20;;;;;;;;;12.00;12.00;;;;;17.26;83.23;101039.81;5031525;28;45416;-76
2022/09/12 01:36:28;;;;;;;;;12.33;10.33;;;;;17.26;83.75;101045.19;5017516;28;45395;-76
2022/09/12 01:38:58;;;;;;;;;12.00;12.00;;;;;17.18;83.37;101034.69;5016267;28;46352;-76
2022/09/12 01:41:25;;;;;;;;;12.00;12.00;;;;;17.22;83.70;101039.44;5035534;28;45317;-76
2022/09/12 01:44:09;;;;;;;;;13.00;12.00;;;;;17.20;83.44;101033.44;5035922;28;45360;-76
2022/09/12 01:46:40;;;;;;;;;13.00;11.33;;;;;17.18;83.17;101032.81;5032570;28;47016;-76
2022/09/12 01:49:18;;;;;;;;;11.33;11.33;;;;;17.12;83.22;101029.09;5016597;28;45337;-76
2022/09/12 01:51:57;;;;;;;;;11.67;11.00;;;;;17.10;83.54;101036.56;5029862;28;45870;-76
2022/09/12 01:54:30;;;;;;;;;13.00;13.00;;;;;17.06;83.77;101029.09;5026609;28;45351;-76
2022/09/12 01:57:01;;;;;;;;;11.00;11.00;;;;;17.17;83.60;101028.47;5019794;28;45418;-76
2022/09/12 01:59:33;;;;;;;;;12.00;11.00;;;;;17.20;83.20;101038.81;5016975;28;45393;-76
2022/09/12 02:02:06;;;;;;;;;11.00;11.00;;;;;17.20;83.48;101020.00;5015913;28;45361;-76
2022/09/12 02:04:40;;;;;;;;;9.33;9.00;;;;;17.22;83.18;101017.09;5017483;28;45273;-76
2022/09/12 02:07:26;;;;;;;;;12.33;12.33;;;;;17.26;83.38;101024.53;5015929;28;45436;-76
2022/09/12 02:10:09;;;;;;;;;10.33;10.00;;;;;17.25;82.96;101022.06;5016757;28;45424;-76
2022/09/12 02:12:55;;;;;;;;;9.00;9.00;;;;;17.22;82.96;101022.47;5021697;28;45924;-76
2022/09/12 02:15:25;;;;;;;;;11.33;10.00;;;;;17.16;83.01;101008.03;5022139;28;45342;-76
2022/09/12 02:17:53;;;;;;;;;10.00;10.00;;;;;17.20;82.84;101025.38;5030984;28;46176;-76
2022/09/12 02:20:26;;;;;;;;;12.00;12.00;;;;;17.15;83.01;101022.50;5017232;28;46225;-76
2022/09/12 02:22:55;;;;;;;;;10.67;10.67;;;;;17.09;82.78;101020.66;5017125;28;45294;-76
2022/09/12 02:25:23;;;;;;;;;12.00;12.00;;;;;17.11;83.23;101021.25;5029203;28;45427;-76
2022/09/12 02:28:02;;;;;;;;;11.00;9.00;;;;;17.04;83.04;101013.22;5017190;28;45435;-76
2022/09/12 02:30:38;;;;;;;;;10.00;10.00;;;;;17.02;83.11;101013.41;5016793;28;45471;-76
2022/09/12 02:33:19;;;;;;;;;8.00;8.00;;;;;16.98;83.53;101008.69;5017065;28;45384;-76
2022/09/12 02:35:47;;;;;;;;;9.00;6.00;;;;;17.02;83.23;101016.09;5029669;28;45310;-76
2022/09/12 02:38:46;;;;;;;;;11.33;10.00;;;;;17.03;83.21;101016.94;5022498;28;47424;-76
2022/09/12 02:41:15;;;;;;;;;10.67;10.67;;;;;16.95;83.47;101004.56;5006630;28;45651;-76
2022/09/12 02:43:40;;;;;;;;;10.67;10.67;;;;;16.91;83.60;101011.38;5016609;28;45300;-76
2022/09/12 02:46:10;;;;;;;;;10.67;10.67;;;;;16.83;84.09;101015.13;5028639;28;45848;-76
2022/09/12 02:48:40;;;;;;;;;13.33;11.67;;;;;16.75;83.61;101008.09;5016946;28;45848;-76
2022/09/12 02:51:05;;;;;;;;;10.00;10.00;;;;;16.69;83.73;101008.09;5028260;28;45426;-76
2022/09/12 02:53:32;;;;;;;;;10.00;10.00;;;;;16.61;84.25;101001.13;5019184;28;45347;-76
2022/09/12 02:55:58;;;;;;;;;11.33;11.33;;;;;16.60;84.38;100999.44;5017066;28;45371;-76
2022/09/12 02:58:28;;;;;;;;;10.33;9.00;;;;;16.67;84.16;101002.94;5016180;28;45542;-76
2022/09/12 03:01:18;;;;;;;;;12.67;12.33;;;;;16.66;84.45;101002.13;5016420;28;45533;-76
2022/09/12 03:04:10;;;;;;;;;9.00;9.00;;;;;16.62;84.53;101006.28;5016424;28;45311;-76
2022/09/12 03:06:45;;;;;;;;;11.00;11.00;;;;;16.59;84.37;100992.44;5016694;28;45331;-76
2022/09/12 03:09:19;;;;;;;;;10.00;9.00;;;;;16.55;84.47;100986.66;5016497;28;45374;-76
2022/09/12 03:11:54;;;;;;;;;11.67;9.33;;;;;16.51;84.67;100990.78;5016349;28;45527;-76
2022/09/12 03:14:31;;;;;;;;;14.00;14.00;;;;;16.49;85.05;100982.94;5021252;28;45247;-77
2022/09/12 03:17:24;;;;;;;;;9.67;9.67;;;;;16.48;84.90;100981.31;5034761;28;45414;-76
2022/09/12 03:20:17;;;;;;;;;12.67;11.33;;;;;16.44;85.04;100974.72;5016364;28;45241;-76
2022/09/12 03:22:53;;;;;;;;;11.67;11.33;;;;;16.44;84.73;100973.88;5016022;28;45643;-76
2022/09/12 03:25:31;;;;;;;;;10.33;10.33;;;;;16.35;84.74;100971.44;5024896;28;45266;-76
2022/09/12 03:28:06;;;;;;;;;13.00;12.33;;;;;16.27;85.04;100968.94;5016284;28;45498;-76
2022/09/12 03:30:47;;;;;;;;;12.00;11.00;;;;;16.35;85.20;100975.97;5016009;28;45361;-76
2022/09/12 03:33:15;;;;;;;;;13.00;12.00;;;;;16.36;85.37;100967.72;5016122;28;45472;-76
2022/09/12 03:35:40;;;;;;;;;10.00;10.00;;;;;16.33;85.32;100964.59;5025871;28;45205;-76
2022/09/12 03:38:06;;;;;;;;;13.33;11.33;;;;;16.33;84.78;100967.28;5016057;28;45349;-76
2022/09/12 03:40:35;;;;;;;;;13.00;11.33;;;;;16.28;85.17;100958.00;5026903;28;47240;-76
2022/09/12 03:43:01;;;;;;;;;9.33;9.00;;;;;16.31;85.09;100964.00;5016765;28;46526;-76
2022/09/12 03:45:27;;;;;;;;;12.33;11.33;;;;;16.32;84.99;100968.31;5015966;28;45230;-76
2022/09/12 03:47:52;;;;;;;;;12.67;12.67;;;;;16.31;85.06;100964.00;5028654;28;45263;-76
2022/09/12 03:50:17;;;;;;;;;12.00;11.00;;;;;16.30;85.36;100954.28;5023395;28;46161;-76
2022/09/12 03:52:43;;;;;;;;;12.00;10.00;;;;;16.25;85.07;100968.34;5025112;28;45643;-76
2022/09/12 03:55:08;;;;;;;;;13.33;11.33;;;;;16.20;85.42;100958.22;5015799;28;45322;-76
2022/09/12 03:57:34;;;;;;;;;9.00;9.00;;;;;16.18;85.39;100967.50;5015933;28;45290;-76
2022/09/12 04:00:00;;;;;;;;;11.00;11.00;;;;;16.10;85.10;100964.00;5014368;28;45567;-76
2022/09/12 04:02:26;;;;;;;;;13.00;12.67;;;;;16.07;85.27;100952.88;5015956;28;45373;-78
2022/09/12 04:04:51;;;;;;;;;10.00;10.00;;;;;16.09;85.58;100959.66;5093828;27;45383;-76
2022/09/12 04:07:17;;;;;;;;;12.00;11.33;;;;;16.03;85.44;100958.63;5023948;27;45491;-76
2022/09/12 04:09:42;;;;;;;;;10.67;10.67;;;;;15.95;85.89;100956.09;5015628;28;45349;-76
2022/09/12 04:12:08;;;;;;;;;11.67;11.67;;;;;15.86;85.75;100952.81;5015199;28;46134;-76
2022/09/12 04:14:33;;;;;;;;;10.33;10.00;;;;;15.85;86.17;100948.47;5022308;28;45350;-76
2022/09/12 04:16:59;;;;;;;;;10.33;10.00;;;;;15.87;85.77;100957.13;5029645;28;45396;-76
2022/09/12 04:19:26;;;;;;;;;12.00;12.00;;;;;15.90;86.37;100958.59;5017212;28;46212;-76
2022/09/12 04:21:52;;;;;;;;;13.67;12.33;;;;;15.86;86.24;100952.81;5033706;28;48003;-76
2022/09/12 04:24:17;;;;;;;;;12.67;11.67;;;;;15.88;86.42;100953.44;5018177;28;45219;-76
2022/09/12 04:26:43;;;;;;;;;10.33;9.67;;;;;15.86;85.92;100958.16;5018716;28;45314;-76
2022/09/12 04:29:10;;;;;;;;;12.00;12.00;;;;;15.93;86.29;100966.22;5030970;28;47416;-76
2022/09/12 04:31:36;;;;;;;;;11.00;11.00;;;;;15.96;85.55;100955.13;5018453;28;45520;-76
2022/09/12 04:34:01;;;;;;;;;11.33;11.33;;;;;15.93;85.46;100952.00;5018185;28;47871;-76
2022/09/12 04:36:28;;;;;;;;;10.00;8.67;;;;;15.94;85.52;100954.47;5018629;28;45340;-76
2022/09/12 04:38:54;;;;;;;;;13.33;12.00;;;;;15.95;85.75;100952.63;5029769;28;46174;-76
2022/09/12 04:41:25;;;;;;;;;13.67;12.33;;;;;16.05;85.65;100966.47;5019098;28;45324;-76
2022/09/12 04:43:53;;;;;;;;;10.33;9.67;;;;;16.08;85.27;100959.88;5018134;28;45553;-76
2022/09/12 04:46:19;;;;;;;;;11.67;11.67;;;;;16.04;85.08;100951.41;5018120;28;45318;-76
2022/09/12 04:48:45;;;;;;;;;10.33;10.33;;;;;16.08;85.07;100959.88;5026731;28;45747;-76
2022/09/12 04:51:13;;;;;;;;;12.67;12.67;;;;;16.07;85.46;100971.63;5034112;28;45439;-76
2022/09/12 04:53:40;;;;;;;;;12.00;11.00;;;;;15.91;85.20;100949.50;5036435;28;45275;-76
2022/09/12 04:56:08;;;;;;;;;13.00;12.00;;;;;16.01;85.38;100965.22;5027868;28;45408;-76
2022/09/12 04:58:34;;;;;;;;;13.00;12.00;;;;;16.01;85.02;100957.16;5017573;28;45494;-76
2022/09/12 05:01:10;;;;;;;;;13.33;12.33;;;;;16.06;85.25;100964.59;5017658;28;47357;-77
2022/09/12 05:03:39;;;;;;;;;13.00;11.67;;;;;16.03;85.12;100961.31;5017844;28;45343;-77
2022/09/12 05:06:11;;;;;;;;;9.33;9.33;;;;;16.03;85.12;100964.00;5022225;28;45341;-79
2022/09/12 05:08:37;;;;;;;;;11.00;11.00;;;;;15.94;85.56;100957.16;5017892;28;45402;-77
2022/09/12 05:11:04;;;;;;;;;12.33;12.33;;;;;15.92;85.57;100961.88;5017879;28;46146;-77
2022/09/12 05:13:30;;;;;;;;;12.00;8.67;;;;;15.87;85.21;100967.03;5017546;28;45345;-77
2022/09/12 05:15:57;;;;;;;;;11.33;11.33;;;;;15.78;85.70;100971.78;5035627;28;45280;-77
2022/09/12 05:18:22;;;;;;;;;11.33;11.33;;;;;15.76;86.08;100966.63;5019647;28;45397;-77
2022/09/12 05:20:47;;;;;;;;;11.33;10.33;;;;;15.75;86.11;100970.31;5019807;28;46537;-77
2022/09/12 05:23:13;;;;;;;;;11.00;11.00;;;;;15.73;86.04;100958.16;5026263;28;45970;-77
2022/09/12 05:25:38;;;;;;;;;13.33;12.00;;;;;15.75;86.33;100951.53;5020540;28;45509;-77
2022/09/12 05:28:03;;;;;;;;;12.00;11.00;;;;;15.74;86.40;100955.25;5020543;28;45287;-77
2022/09/12 05:30:28;;;;;;;;;12.33;12.00;;;;;15.68;86.15;100955.25;5017474;28;51111;-77
2022/09/12 05:32:55;;;;;;;;;13.67;13.33;;;;;15.60;86.63;100946.41;5017709;28;45244;-77
2022/09/12 05:35:20;;;;;;;;;13.33;12.67;;;;;15.68;86.98;100947.22;5017715;28;45275;-77
2022/09/12 05:37:45;;;;;;;;;13.33;12.33;;;;;15.70;86.49;100951.34;5017294;28;45330;-77
2022/09/12 05:40:13;;;;;;;;;15.67;14.33;;;;;15.57;86.86;100937.94;5025646;28;51347;-77
2022/09/12 05:42:38;;;;;;;;;12.00;12.00;;;;;15.58;87.20;100947.59;5022052;28;45334;-77
2022/09/12 05:45:04;;;;;;;;;15.00;14.33;;;;;15.58;87.47;100936.88;5017860;28;45264;-77
2022/09/12 05:47:30;;;;;;;;;14.33;14.00;;;;;15.64;87.47;100949.47;5017516;28;45266;-77
2022/09/12 05:49:56;;;;;;;;;14.33;14.33;;;;;15.63;87.08;100961.22;5018849;28;45414;-77
2022/09/12 05:52:21;;;;;;;;;14.00;13.00;;;;;15.58;87.68;100947.59;5036183;28;45479;-78
2022/09/12 05:54:47;;;;;;;;;11.33;10.33;;;;;15.64;87.37;100960.19;5023757;28;45404;-78
2022/09/12 05:57:12;;;;;;;;;15.00;15.00;;;;;15.63;87.57;100958.56;5017110;28;45467;-78
2022/09/12 05:59:37;;;;;;;;;16.00;16.00;;;;;15.70;87.68;100955.88;5017178;28;45396;-78
2022/09/12 06:02:03;;;;;;;;;13.00;13.00;;;;;15.72;87.42;100951.16;5021542;28;45492;-77
2022/09/12 06:04:28;;;;;;;;;13.67;13.00;;;;;15.83;87.19;100955.09;5032586;27;45436;-78
2022/09/12 06:06:54;;;;;;;;;15.67;15.67;;;;;15.84;87.25;100965.59;5018044;28;45434;-78
2022/09/12 06:09:19;;;;;;;;;13.00;12.00;;;;;15.87;87.44;100965.16;5017201;28;45353;-78
2022/09/12 06:11:45;;;;;;;;;10.00;10.00;;;;;15.85;87.41;100966.41;5016966;28;45334;-78
2022/09/12 06:14:14;;;;;;;;;14.33;13.33;;;;;15.85;87.33;100953.00;5017040;28;45457;-77
2022/09/12 06:16:40;;;;;;;;;14.00;13.33;;;;;16.05;87.29;100952.25;5028844;28;46351;-77
2022/09/12 06:19:15;;;;;;;;;16.00;15.33;;;;;16.11;87.57;100956.78;5017475;28;45492;-76
2022/09/12 06:21:40;;;;;;;;;10.00;10.00;;;;;16.18;87.05;100964.81;5017169;28;45461;-77
2022/09/12 06:24:09;;;;;;;;;14.67;14.67;;;;;16.16;87.17;100962.34;5017052;28;45354;-77
2022/09/12 06:26:36;;;;;;;;;15.33;14.00;;;;;16.21;87.50;100959.88;5026436;28;47228;-78
2022/09/12 06:29:02;;;;;;;;;17.33;15.33;;;;;16.23;87.45;100975.75;5019656;28;46591;-77
2022/09/12 06:31:30;;;;;;;;;13.00;13.00;;;;;16.26;87.61;100968.09;5024691;28;45333;-78
2022/09/12 06:33:59;;;;;;;;;14.00;14.00;;;;;16.31;87.57;100961.31;5020292;28;45264;-78
2022/09/12 06:36:27;;;;;;;;;13.33;12.00;;;;;16.35;87.80;100951.81;5016581;28;45382;-78
2022/09/12 06:38:58;;;;;;;;;14.67;13.00;;;;;16.43;87.42;100956.97;5029307;28;48300;-78
2022/09/12 06:41:24;;;;;;;;;13.67;13.33;;;;;16.43;87.66;100948.91;5031889;28;45375;-82
2022/09/12 06:43:49;;;;;;;;;15.00;12.67;;;;;16.50;87.41;100962.31;5016653;28;45350;-77
2022/09/12 06:46:15;;;;;;;;;13.67;13.00;;;;;16.52;87.43;100954.88;5016565;28;45499;-78
2022/09/12 06:48:41;;;;;;;;;12.67;12.67;;;;;16.59;87.68;100957.56;5026143;28;48157;-79
2022/09/12 06:51:10;;;;;;;;;11.00;11.00;;;;;16.62;87.69;100955.31;5028222;28;45299;-78
2022/09/12 06:53:36;;;;;;;;;15.67;15.33;;;;;16.68;87.82;100953.63;5017566;28;45397;-78
2022/09/12 06:56:05;;;;;;;;;16.67;16.67;;;;;16.78;87.90;100954.03;5041971;28;46949;-78
2022/09/12 06:58:32;;;;;;;;;20.67;20.33;;;;;16.88;87.76;100963.50;5018299;28;47875;-78
2022/09/12 07:01:05;;;;;;;;;28.00;24.67;;;;;16.88;87.54;100958.13;5023321;28;45242;-78
2022/09/12 07:03:31;;;;;;;;;20.00;20.00;;;;;16.96;87.18;100965.09;5021554;28;45317;-77
2022/09/12 07:06:02;;;;;;;;;29.00;24.33;;;;;17.03;86.83;100964.06;5016652;28;45332;-78
2022/09/12 07:08:30;;;;;;;;;24.00;22.00;;;;;17.11;87.64;100964.88;5028407;28;48591;-78
2022/09/12 07:10:56;;;;;;;;;28.67;25.67;;;;;17.16;86.92;100955.13;5017210;28;45467;-77
2022/09/12 07:13:22;;;;;;;;;56.75;46.75;;;;;17.22;87.24;100953.47;5014123;28;45399;-77
2022/09/12 07:15:47;;;;;;;;;24.67;24.00;;;;;17.27;87.44;100963.59;5017564;28;45507;-77
2022/09/12 07:18:13;;;;;;;;;18.33;17.00;;;;;17.36;87.22;100958.78;5033461;28;46638;-78
2022/09/12 07:20:38;;;;;;;;;18.67;18.67;;;;;17.44;86.96;100952.31;5033668;28;45280;-76
2022/09/12 07:23:04;;;;;;;;;14.67;13.67;;;;;17.55;86.63;100957.03;5019322;28;45260;-76
2022/09/12 07:25:29;;;;;;;;;11.33;11.00;;;;;17.55;86.83;100946.28;5038886;28;46976;-78
2022/09/12 07:27:54;;;;;;;;;12.00;12.00;;;;;17.60;86.13;100938.38;5031055;28;47910;-77
2022/09/12 07:30:21;;;;;;;;;16.67;14.33;;;;;17.73;86.46;100937.50;5014938;28;45754;-77
2022/09/12 07:32:46;;;;;;;;;10.33;10.00;;;;;17.83;86.14;100953.13;5016127;28;45499;-77
2022/09/12 07:35:12;;;;;;;;;10.00;10.00;;;;;18.00;86.26;100958.81;5016137;28;45474;-77
2022/09/12 07:37:37;;;;;;;;;12.67;12.67;;;;;18.04;85.02;100948.41;5015774;28;45666;-77
2022/09/12 07:40:03;;;;;;;;;0.33;0.33;;;;;18.07;85.32;100939.09;5022594;28;45479;-77
2022/09/12 07:42:28;;;;;;;;;11.67;11.67;;;;;18.16;85.15;100946.69;5022958;28;45413;-77
2022/09/12 07:44:53;;;;;;;;;9.00;9.00;;;;;18.26;84.99;100943.50;5030814;28;46131;-77
2022/09/12 07:47:19;;;;;;;;;9.33;9.00;;;;;18.36;84.56;100956.47;5020834;28;45502;-78
2022/09/12 07:49:44;;;;;;;;;7.00;7.00;;;;;18.45;83.92;100953.47;5024378;28;45516;-77
2022/09/12 07:52:09;;;;;;;;;8.00;8.00;;;;;18.54;83.86;100952.97;5020767;28;45361;-77
2022/09/12 07:54:35;;;;;;;;;8.00;8.00;;;;;18.60;84.06;100945.03;5021599;28;46613;-77
2022/09/12 07:57:00;;;;;;;;;7.00;7.00;;;;;18.70;83.99;100955.31;5024343;28;45412;-77
2022/09/12 07:59:26;;;;;;;;;8.00;7.00;;;;;18.82;83.57;100942.72;5027447;28;45861;-77
2022/09/12 08:01:52;;;;;;;;;7.00;7.00;;;;;18.98;82.85;100943.19;5032102;28;45335;-77
2022/09/12 08:04:17;;;;;;;;;7.33;7.33;;;;;19.05;82.33;100944.75;5015835;28;45306;-78
2022/09/12 08:06:43;;;;;;;;;9.33;9.33;;;;;19.12;82.13;100941.16;5015439;28;46225;-77
2022/09/12 08:09:10;;;;;;;;;8.33;7.33;;;;;19.15;81.72;100951.47;5015576;28;45284;-77
2022/09/12 08:11:36;;;;;;;;;8.00;8.00;;;;;19.24;81.48;100944.75;5015571;28;45380;-78
2022/09/12 08:14:04;;;;;;;;;7.00;7.00;;;;;19.36;81.32;100943.97;5013536;28;45657;-78
2022/09/12 08:16:31;;;;;;;;;5.67;5.67;;;;;19.40;81.25;100948.66;5021526;28;48271;-77
2022/09/12 08:18:57;;;;;;;;;6.67;6.67;;;;;19.41;80.73;100941.41;5017853;28;45338;-77
2022/09/12 08:21:28;;;;;;;;;8.00;5.67;;;;;19.47;80.35;100936.97;5015387;28;45276;-77
2022/09/12 08:23:59;;;;;;;;;9.33;9.33;;;;;19.64;80.17;100942.53;5028220;28;46263;-77
2022/09/12 08:26:25;;;;;;;;;8.00;7.00;;;;;19.69;79.73;100929.19;5022981;28;47265;-77
2022/09/12 08:28:52;;;;;;;;;6.67;6.67;;;;;19.76;80.03;100940.72;5107730;27;45284;-77
2022/09/12 08:31:20;;;;;;;;;7.33;7.33;;;;;19.87;79.80;100936.38;5015278;28;45365;-77
2022/09/12 08:33:46;;;;;;;;;8.00;7.00;;;;;19.96;79.73;100949.53;5013747;28;45941;-77
2022/09/12 08:36:20;;;;;;;;;7.00;7.00;;;;;20.03;79.88;100959.16;5015056;28;46125;-76
2022/09/12 08:38:47;;;;;;;;;8.00;8.00;;;;;20.08;79.34;100953.06;5014933;28;45454;-76
2022/09/12 08:41:33;;;;;;;;;8.67;8.67;;;;;20.14;79.47;100951.34;5015003;28;46585;-78
2022/09/12 08:44:05;;;;;;;;;9.33;8.67;;;;;20.22;78.94;100940.19;5026398;28;47170;-78
2022/09/12 08:46:53;;;;;;;;;8.00;7.67;;;;;20.24;79.11;100935.41;5032859;28;45412;-78
2022/09/12 08:49:30;;;;;;;;;7.33;7.33;;;;;20.31;79.04;100933.41;5027444;28;45377;-79
2022/09/12 08:52:02;;;;;;;;;7.00;6.67;;;;;20.38;78.78;100933.25;5027669;28;45363;-78
2022/09/12 08:54:29;;;;;;;;;8.00;8.00;;;;;20.37;79.05;100928.09;5014634;28;45514;-77
2022/09/12 08:57:01;;;;;;;;;7.33;6.00;;;;;20.41;77.90;100930.09;5028893;28;45461;-77
2022/09/12 08:59:48;;;;;;;;;8.33;7.00;;;;;20.46;78.01;100929.38;5026449;28;45397;-78
2022/09/12 09:02:41;;;;;;;;;10.00;9.67;;;;;20.53;77.89;100924.69;5023124;28;45342;-77
2022/09/12 09:05:36;;;;;;;;;6.00;6.00;;;;;20.62;77.01;100922.44;5036517;28;47015;-78
2022/09/12 09:08:30;;;;;;;;;6.00;6.00;;;;;20.73;76.98;100926.16;5025541;28;48435;-77
2022/09/12 09:11:13;;;;;;;;;7.33;7.33;;;;;20.77;77.29;100923.84;5016857;28;45770;-77
2022/09/12 09:16:43;;;;;;;;;7.00;7.00;;;;;20.84;77.41;100920.97;5024624;28;45451;-76
2022/09/12 09:19:32;;;;;;;;;6.67;6.00;;;;;20.94;76.92;100923.91;5033119;28;45609;-77
2022/09/12 09:22:11;;;;;;;;;12.00;11.33;;;;;20.95;77.27;100925.53;5018871;28;45424;-77
2022/09/12 09:24:44;;;;;;;;;10.00;10.00;;;;;20.98;77.06;100921.56;5032456;28;45472;-76
2022/09/12 09:27:32;;;;;;;;;8.33;7.00;;;;;21.12;76.35;100936.44;5034365;28;45429;-77
2022/09/12 09:29:58;;;;;;;;;8.00;8.00;;;;;21.16;76.35;100926.78;5036740;28;45800;-77
2022/09/12 09:32:40;;;;;;;;;8.33;8.33;;;;;21.23;76.33;100928.50;5035399;28;45387;-77
2022/09/12 09:35:39;;;;;;;;;13.00;11.00;;;;;21.37;76.34;100934.47;5036456;28;45348;-77
2022/09/12 09:38:27;;;;;;;;;9.33;7.67;;;;;21.34;75.03;100906.00;5031402;28;46048;-77
2022/09/12 09:41:25;;;;;;;;;7.33;7.33;;;;;21.56;75.00;100910.72;5028223;28;45716;-78
2022/09/12 09:43:51;;;;;;;;;7.33;7.33;;;;;21.66;74.73;100902.78;5017194;28;45694;-78
2022/09/12 09:46:17;;;;;;;;;17.67;17.00;;;;;21.66;75.10;100897.38;5017927;28;45755;-78
2022/09/12 09:49:09;;;;;;;;;;;;;;;;;;;;;
2022/09/12 09:51:44;;;;;;;;;37.33;31.67;;;;;22.03;73.47;100889.84;5026157;28;74245;-80
2022/09/12 09:54:21;;;;;;;;;6.00;6.00;;;;;22.20;72.58;100889.81;5022101;28;45532;-78
2022/09/12 09:56:47;;;;;;;;;5.33;4.33;;;;;22.29;72.25;100874.78;5029112;28;45407;-78
2022/09/12 09:59:15;;;;;;;;;31.00;26.33;;;;;22.48;72.07;100882.63;5035446;28;45502;-78
2022/09/12 10:01:50;;;;;;;;;6.67;5.00;;;;;22.62;70.88;100883.06;5030127;28;45542;-79
2022/09/12 10:04:19;;;;;;;;;7.00;5.33;;;;;22.70;70.53;100879.94;5027020;28;45420;-78
2022/09/12 10:06:45;;;;;;;;;8.33;5.00;;;;;22.82;70.39;100874.38;5018819;28;45345;-78
2022/09/12 10:09:14;;;;;;;;;16.33;15.00;;;;;22.93;69.82;100888.84;5016380;28;45919;-79
2022/09/12 10:11:40;;;;;;;;;9.00;8.67;;;;;23.00;69.84;100877.81;5016048;28;45337;-78
2022/09/12 10:14:31;;;;;;;;;2.00;2.00;;;;;23.06;69.11;100874.09;5017070;28;45513;-77
2022/09/12 10:16:57;;;;;;;;;9.67;8.67;;;;;23.23;68.84;100883.19;5025126;28;45482;-79
2022/09/12 10:19:34;;;;;;;;;5.00;4.33;;;;;23.47;68.92;100888.31;5016973;28;45512;-77
2022/09/12 10:22:01;;;;;;;;;4.00;4.00;;;;;23.66;69.00;100875.16;5017166;28;45583;-77
2022/09/12 10:24:31;;;;;;;;;3.00;3.00;;;;;23.85;68.30;100867.44;5017122;28;45271;-79
2022/09/12 10:27:06;;;;;;;;;4.00;4.00;;;;;24.08;66.56;100868.13;5016830;28;45565;-82
2022/09/12 10:29:38;;;;;;;;;4.00;4.00;;;;;24.29;65.84;100871.81;5017138;28;45326;-77
2022/09/12 10:32:07;;;;;;;;;4.00;4.00;;;;;24.45;66.40;100856.38;5016893;28;46466;-77
2022/09/12 10:34:42;;;;;;;;;3.00;3.00;;;;;24.65;64.93;100856.72;5017095;28;45396;-77
2022/09/12 10:37:15;;;;;;;;;3.67;3.67;;;;;24.84;64.88;100849.72;5017240;28;45380;-79
2022/09/12 10:39:52;;;;;;;;;3.67;3.67;;;;;25.13;63.29;100848.44;5016779;28;45377;-79
2022/09/12 10:43:03;;;;;;;;;3.67;3.67;;;;;25.32;62.21;100846.00;5016679;28;46209;-76
2022/09/12 10:45:37;;;;;;;;;18.00;16.00;;;;;25.52;62.46;100843.53;5017126;28;45467;-76
2022/09/12 10:48:26;;;;;;;;;1.00;1.00;;;;;25.67;60.97;100837.28;5017224;28;45222;-75
2022/09/12 10:50:52;;;;;;;;;4.00;4.00;;;;;25.88;60.09;100831.84;5027735;28;46380;-77
2022/09/12 10:53:24;;;;;;;;;4.00;3.00;;;;;26.05;60.43;100840.50;5020498;28;46526;-77
2022/09/12 10:56:04;;;;;;;;;4.00;4.00;;;;;26.13;59.40;100846.44;5016873;28;45352;-77
2022/09/12 10:59:06;;;;;;;;;3.00;3.00;;;;;26.27;58.85;100844.75;5029201;28;45372;-78
2022/09/12 11:01:35;;;;;;;;;5.00;4.00;;;;;26.40;59.39;100848.81;5028522;28;46530;-77
2022/09/12 11:04:26;;;;;;;;;3.00;3.00;;;;;26.52;58.36;100829.44;5023790;28;45609;-78
2022/09/12 11:07:09;;;;;;;;;4.00;4.00;;;;;26.72;58.72;100853.03;5025782;28;45573;-78
2022/09/12 11:09:56;;;;;;;;;4.67;3.00;;;;;26.79;57.74;100835.56;5023282;28;45477;-78
2022/09/12 11:12:57;;;;;;;;;3.67;3.67;;;;;26.94;57.44;100838.16;5024180;28;45261;-78
2022/09/12 11:15:33;;;;;;;;;6.00;6.00;;;;;27.07;56.81;100838.66;5018281;28;47184;-77
2022/09/12 11:18:05;;;;;;;;;5.33;5.00;;;;;27.22;57.38;100843.19;5025839;28;45326;-78
2022/09/12 11:20:52;;;;;;;;;5.00;5.00;;;;;27.25;56.74;100830.88;5027722;28;45488;-78
2022/09/12 11:23:39;;;;;;;;;4.00;4.00;;;;;27.37;56.25;100833.22;5024909;27;45424;-78
2022/09/12 11:26:20;;;;;;;;;4.33;4.33;;;;;27.44;56.25;100825.53;5025917;28;47433;-79
2022/09/12 11:28:59;;;;;;;;;5.67;5.00;;;;;27.50;55.47;100818.91;5018497;28;45660;-78
2022/09/12 11:31:42;;;;;;;;;5.00;5.00;;;;;27.70;55.94;100826.13;5025769;28;45275;-78
2022/09/12 11:34:10;;;;;;;;;4.67;4.67;;;;;27.82;54.49;100814.81;5019011;28;45602;-79
2022/09/12 11:36:55;;;;;;;;;4.00;4.00;;;;;27.94;54.88;100810.84;5029906;28;45358;-79
2022/09/12 11:39:44;;;;;;;;;4.00;4.00;;;;;27.99;53.57;100813.53;5020266;28;45477;-79